Aviation Digital Data Service (ADDS)

Output produced by METARs form (2054 UTC 08 August 2020)
found at http://www.aviationweather.gov/metar/data/
 
METAR text: EDDH 082050Z 04004KT CAVOK 24/17 Q1020 NOSIG
Conditions at: EDDH (HAMBURG/FUHLSBUT, DE) observed 2050 UTC 08 August 2020
Temperature: 24.0°C (75°F)
Dewpoint: 17.0°C (63°F) [RH = 65%]
Pressure (altimeter): 30.12 inches Hg (1020.0 mb)
Winds: from the NE (40 degrees) at 5 MPH (4 knots; 2.1 m/s)
Visibility: 6 or more miles (10+ km)
Ceiling: ceiling and visibility are OK
Clouds: unknown
Weather: no significant weather observed at this time

METAR text: EDDH 082020Z 06005KT CAVOK 24/16 Q1020 NOSIG
Conditions at: EDDH (HAMBURG/FUHLSBUT, DE) observed 2020 UTC 08 August 2020
Temperature: 24.0°C (75°F)
Dewpoint: 16.0°C (61°F) [RH = 61%]
Pressure (altimeter): 30.12 inches Hg (1020.0 mb)
Winds: from the ENE (60 degrees) at 6 MPH (5 knots; 2.6 m/s)
Visibility: 6 or more miles (10+ km)
Ceiling: ceiling and visibility are OK
Clouds: unknown
Weather: no significant weather observed at this time

METAR text: EDDH 081950Z 05005KT CAVOK 25/16 Q1020 NOSIG
Conditions at: EDDH (HAMBURG/FUHLSBUT, DE) observed 1950 UTC 08 August 2020
Temperature: 25.0°C (77°F)
Dewpoint: 16.0°C (61°F) [RH = 57%]
Pressure (altimeter): 30.12 inches Hg (1020.0 mb)
Winds: from the NE (50 degrees) at 6 MPH (5 knots; 2.6 m/s)
Visibility: 6 or more miles (10+ km)
Ceiling: ceiling and visibility are OK
Clouds: unknown
Weather: no significant weather observed at this time

METAR text: EDDH 081920Z 05005KT CAVOK 26/16 Q1020 NOSIG
Conditions at: EDDH (HAMBURG/FUHLSBUT, DE) observed 1920 UTC 08 August 2020
Temperature: 26.0°C (79°F)
Dewpoint: 16.0°C (61°F) [RH = 54%]
Pressure (altimeter): 30.12 inches Hg (1020.0 mb)
Winds: from the NE (50 degrees) at 6 MPH (5 knots; 2.6 m/s)
Visibility: 6 or more miles (10+ km)
Ceiling: ceiling and visibility are OK
Clouds: unknown
Weather: no significant weather observed at this time

METAR text: EDDH 081850Z 03005KT 360V060 CAVOK 27/16 Q1020 NOSIG
Conditions at: EDDH (HAMBURG/FUHLSBUT, DE) observed 1850 UTC 08 August 2020
Temperature: 27.0°C (81°F)
Dewpoint: 16.0°C (61°F) [RH = 51%]
Pressure (altimeter): 30.12 inches Hg (1020.0 mb)
Winds: from the NNE (30 degrees) at 6 MPH (5 knots; 2.6 m/s)
Visibility: 6 or more miles (10+ km)
Ceiling: ceiling and visibility are OK
Clouds: unknown
Weather: no significant weather observed at this time

METAR text: EDDH 081820Z 04005KT 020V080 CAVOK 28/16 Q1019 NOSIG
Conditions at: EDDH (HAMBURG/FUHLSBUT, DE) observed 1820 UTC 08 August 2020
Temperature: 28.0°C (82°F)
Dewpoint: 16.0°C (61°F) [RH = 48%]
Pressure (altimeter): 30.09 inches Hg (1019.0 mb)
Winds: from the NE (40 degrees) at 6 MPH (5 knots; 2.6 m/s)
Visibility: 6 or more miles (10+ km)
Ceiling: ceiling and visibility are OK
Clouds: unknown
Weather: no significant weather observed at this time

METAR text: EDDH 081750Z 04007KT CAVOK 29/17 Q1019 NOSIG
Conditions at: EDDH (HAMBURG/FUHLSBUT, DE) observed 1750 UTC 08 August 2020
Temperature: 29.0°C (84°F)
Dewpoint: 17.0°C (63°F) [RH = 48%]
Pressure (altimeter): 30.09 inches Hg (1019.0 mb)
Winds: from the NE (40 degrees) at 8 MPH (7 knots; 3.6 m/s)
Visibility: 6 or more miles (10+ km)
Ceiling: ceiling and visibility are OK
Clouds: unknown
Weather: no significant weather observed at this time

METAR text: EDDH 081720Z 05009KT CAVOK 29/16 Q1019 NOSIG
Conditions at: EDDH (HAMBURG/FUHLSBUT, DE) observed 1720 UTC 08 August 2020
Temperature: 29.0°C (84°F)
Dewpoint: 16.0°C (61°F) [RH = 45%]
Pressure (altimeter): 30.09 inches Hg (1019.0 mb)
Winds: from the NE (50 degrees) at 10 MPH (9 knots; 4.6 m/s)
Visibility: 6 or more miles (10+ km)
Ceiling: ceiling and visibility are OK
Clouds: unknown
Weather: no significant weather observed at this time

METAR text: EDDH 081650Z 05009KT CAVOK 31/17 Q1019 NOSIG
Conditions at: EDDH (HAMBURG/FUHLSBUT, DE) observed 1650 UTC 08 August 2020
Temperature: 31.0°C (88°F)
Dewpoint: 17.0°C (63°F) [RH = 43%]
Pressure (altimeter): 30.09 inches Hg (1019.0 mb)
Winds: from the NE (50 degrees) at 10 MPH (9 knots; 4.6 m/s)
Visibility: 6 or more miles (10+ km)
Ceiling: ceiling and visibility are OK
Clouds: unknown
Weather: no significant weather observed at this time

METAR text: EDDH 081620Z 05008KT CAVOK 31/17 Q1019 NOSIG
Conditions at: EDDH (HAMBURG/FUHLSBUT, DE) observed 1620 UTC 08 August 2020
Temperature: 31.0°C (88°F)
Dewpoint: 17.0°C (63°F) [RH = 43%]
Pressure (altimeter): 30.09 inches Hg (1019.0 mb)
Winds: from the NE (50 degrees) at 9 MPH (8 knots; 4.1 m/s)
Visibility: 6 or more miles (10+ km)
Ceiling: ceiling and visibility are OK
Clouds: unknown
Weather: no significant weather observed at this time

METAR text: EDDH 081550Z 04009KT 360V060 CAVOK 31/17 Q1019 NOSIG
Conditions at: EDDH (HAMBURG/FUHLSBUT, DE) observed 1550 UTC 08 August 2020
Temperature: 31.0°C (88°F)
Dewpoint: 17.0°C (63°F) [RH = 43%]
Pressure (altimeter): 30.09 inches Hg (1019.0 mb)
Winds: from the NE (40 degrees) at 10 MPH (9 knots; 4.6 m/s)
Visibility: 6 or more miles (10+ km)
Ceiling: ceiling and visibility are OK
Clouds: unknown
Weather: no significant weather observed at this time

METAR text: EDDH 081520Z 36004KT 330V050 CAVOK 33/15 Q1019 BECMG 04010KT
Conditions at: EDDH (HAMBURG/FUHLSBUT, DE) observed 1520 UTC 08 August 2020
Temperature: 33.0°C (91°F)
Dewpoint: 15.0°C (59°F) [RH = 34%]
Pressure (altimeter): 30.09 inches Hg (1019.0 mb)
Winds: from the N (360 degrees) at 5 MPH (4 knots; 2.1 m/s)
Visibility: 6 or more miles (10+ km)
Ceiling: ceiling and visibility are OK
Clouds: unknown
Weather: no significant weather observed at this time

Forecast for: EDDH (HAMBURG/FUHLSBUT, DE)
Text: TAF EDDH 081700Z 0818/0924 03004KT CAVOK
Forecast period: 1800 UTC 08 August 2020 to 0600 UTC 09 August 2020
Forecast type: FROM: standard forecast or significant change
Winds: from the NNE (30 degrees) at 5 MPH (4 knots; 2.1 m/s)
Visibility: 6 or more miles (10+ km)
Ceiling: unknown
Clouds: missing
Weather: NSW  (no significant weather)
Text: TEMPO 0818/0819 04009KT
Forecast period: 1800 to 1900 UTC 08 August 2020
Forecast type: TEMPORARY: The following changes expected for less than half the time period
Winds: from the NE (40 degrees) at 10 MPH (9 knots; 4.6 m/s)
Visibility: missing
Ceiling: unknown
Clouds: missing
Weather: no significant weather forecast for this period
Text: BECMG 0906/0908 04009KT
Forecast period: 0600 to 1900 UTC 09 August 2020
Forecast type: BECOMING: Conditions expected to become as follows by 0800 UTC 09 August 2020
Winds: from the NE (40 degrees) at 10 MPH (9 knots; 4.6 m/s)
Visibility: 6 or more miles (10+ km)
Ceiling: unknown
Clouds: missing
Weather: NSW  (no significant weather)
Text: PROB30
Forecast period: 1600 to 1800 UTC 09 August 2020
Forecast type: TEMPORARY: The following changes expected for less than half the time period
Winds: variable direction winds at 3 MPH (3 knots; 1.5 m/s)
Visibility: missing
Ceiling: at least 12,000 feet AGL
Clouds: few clouds at 8000 feet AGL
Weather: no significant weather forecast for this period
Text: TEMPO 0916/0918 VRB03KT FEW080CB
Forecast period: 1900 UTC 09 August 2020 to 0000 UTC 10 August 2020
Forecast type: BECOMING: Conditions expected to become as follows by 2100 UTC 09 August 2020
Winds: from the NNE (30 degrees) at 5 MPH (4 knots; 2.1 m/s)
Visibility: 6 or more miles (10+ km)
Ceiling: unknown
Clouds: missing
Weather: NSW  (no significant weather)